Time;durP1;ratioP1;P1;durP2;ratioP2;P2;SDS_P1;SDS_P2;PMS_P1;PMS_P2;Temp;Humidity;BMP_temperature;BMP_pressure;BME280_temperature;BME280_humidity;BME280_pressure;Samples;Min_cycle;Max_cycle;Signal;HPM_P1;HPM_P2
2024/04/21 00:01:52;;;;;;;2.27;1.90;;;;;;;-145.69;77.55;52420.63;5526661;26;20264;-81
2024/04/21 00:04:24;;;;;;;3.07;2.00;;;;;;;-145.69;77.36;52400.81;5525116;26;20229;-78
2024/04/21 00:06:49;;;;;;;3.13;2.17;;;;;;;-145.69;77.56;52424.59;5526285;26;20256;-79
2024/04/21 00:09:17;;;;;;;2.53;1.90;;;;;;;-145.69;76.60;52396.84;5526439;26;20712;-78
2024/04/21 00:11:43;;;;;;;3.20;2.03;;;;;;;-145.69;76.89;52361.22;5525969;26;20692;-79
2024/04/21 00:14:11;;;;;;;4.33;1.67;;;;;;;-145.69;77.50;52410.72;5525552;26;20225;-79
2024/04/21 00:16:37;;;;;;;5.17;1.90;;;;;;;-145.69;76.95;52414.69;5526138;26;20226;-79
2024/04/21 00:19:05;;;;;;;2.83;2.17;;;;;;;-145.69;76.19;52408.75;5526512;26;20600;-79
2024/04/21 00:21:34;;;;;;;3.30;2.30;;;;;;;-145.69;76.31;52404.78;5525803;26;20272;-78
2024/04/21 00:24:02;;;;;;;2.43;2.00;;;;;;;-145.69;76.68;52381.00;5525614;26;20245;-79
2024/04/21 00:26:27;;;;;;;3.63;2.40;;;;;;;-145.69;76.32;52444.38;5525594;26;20740;-78
2024/04/21 00:28:55;;;;;;;3.07;2.10;;;;;;;-145.69;75.93;52406.75;5525239;26;20225;-79
2024/04/21 00:31:21;;;;;;;2.87;2.10;;;;;;;-145.69;74.88;52412.69;5525797;26;20218;-78
2024/04/21 00:33:49;;;;;;;3.07;2.40;;;;;;;-145.69;75.56;52381.00;5525754;26;20221;-78
2024/04/21 00:36:14;;;;;;;2.93;2.10;;;;;;;-145.69;75.19;52400.81;5525873;26;20213;-79
2024/04/21 00:38:45;;;;;;;3.23;2.27;;;;;;;-145.69;75.68;52386.97;5526035;26;20225;-78
2024/04/21 00:41:11;;;;;;;3.97;2.20;;;;;;;-145.69;74.93;52420.63;5524481;26;20264;-78
2024/04/21 00:43:39;;;;;;;4.17;1.90;;;;;;;-145.69;75.35;52418.63;5525443;26;20229;-78
2024/04/21 00:46:05;;;;;;;3.23;2.03;;;;;;;-145.69;74.61;52414.69;5525784;26;20355;-78
2024/04/21 00:48:34;;;;;;;2.77;1.80;;;;;;;-145.69;75.72;52434.47;5525406;26;20693;-78
2024/04/21 00:51:01;;;;;;;2.40;2.07;;;;;;;-145.69;75.28;52416.66;5525358;26;20234;-78
2024/04/21 00:53:30;;;;;;;1.63;1.53;;;;;;;-145.69;74.54;52420.63;5525358;26;20230;-76
2024/04/21 00:55:58;;;;;;;2.33;1.60;;;;;;;-145.69;74.34;52416.66;5525358;26;20217;-79
2024/04/21 00:58:27;;;;;;;2.17;1.40;;;;;;;-145.69;74.73;52396.84;5524669;26;20222;-78
2024/04/21 01:00:52;;;;;;;2.20;1.47;;;;;;;-145.69;75.50;52412.69;5525634;26;20700;-79
2024/04/21 01:03:21;;;;;;;2.50;1.70;;;;;;;-145.69;75.22;52408.75;5524717;26;20301;-77
2024/04/21 01:05:46;;;;;;;1.97;1.70;;;;;;;-145.69;74.65;52398.84;5524711;26;20218;-80
2024/04/21 01:08:14;;;;;;;2.33;1.70;;;;;;;-145.69;75.42;52416.66;5524969;26;20813;-78
2024/04/21 01:10:40;;;;;;;2.87;1.67;;;;;;;-145.69;74.34;52434.47;5525178;26;20214;-78
2024/04/21 01:13:14;;;;;;;2.00;1.80;;;;;;;-145.69;75.03;52420.63;5524672;26;20585;-78
2024/04/21 01:15:40;;;;;;;2.13;1.80;;;;;;;-145.69;74.19;52406.75;5524221;26;20224;-78
2024/04/21 01:18:11;;;;;;;2.63;2.00;;;;;;;-145.69;74.93;52400.81;5524966;26;20562;-78
2024/04/21 01:20:37;;;;;;;2.43;1.83;;;;;;;-145.69;75.73;52386.97;5524589;26;20358;-79
2024/04/21 01:23:08;;;;;;;3.07;2.20;;;;;;;-145.69;76.10;52400.81;5525188;26;20708;-78
2024/04/21 01:25:33;;;;;;;2.27;1.70;;;;;;;-145.69;76.68;52373.09;5524489;26;20303;-79
2024/04/21 01:28:02;;;;;;;2.60;2.10;;;;;;;-145.69;76.46;52420.63;5525195;26;20265;-78
2024/04/21 01:30:27;;;;;;;3.13;2.33;;;;;;;-145.69;76.67;52408.75;5525319;26;20712;-78
2024/04/21 01:32:55;;;;;;;5.03;2.40;;;;;;;-145.69;76.82;52400.81;5523401;26;20314;-79
2024/04/21 01:35:21;;;;;;;3.67;2.20;;;;;;;-145.69;76.80;52383.00;5524748;26;20263;-78
2024/04/21 01:37:49;;;;;;;4.20;2.30;;;;;;;-145.69;76.76;52422.59;5525014;26;20704;-79
2024/04/21 01:40:18;;;;;;;3.53;2.20;;;;;;;-145.69;76.63;52424.59;5524757;26;20297;-78
2024/04/21 01:42:46;;;;;;;5.13;2.50;;;;;;;-145.69;76.61;52416.66;5523592;26;20229;-79
2024/04/21 01:45:12;;;;;;;2.37;2.07;;;;;;;-145.69;76.85;52416.66;5524783;26;20226;-77
2024/04/21 01:47:40;;;;;;;4.67;2.40;;;;;;;-145.69;76.62;52412.69;5520882;25;20260;-77
2024/04/21 01:50:06;;;;;;;3.30;2.37;;;;;;;-145.69;76.64;52396.84;5524556;26;20218;-77
2024/04/21 01:52:35;;;;;;;3.70;2.80;;;;;;;-145.69;76.55;52414.69;5524823;26;20226;-78
2024/04/21 01:55:00;;;;;;;3.63;2.23;;;;;;;-145.69;76.88;52400.81;5528671;26;20217;-77
2024/04/21 01:57:31;;;;;;;3.63;2.70;;;;;;;-145.69;76.92;52402.78;5528498;26;20272;-78
2024/04/21 01:59:56;;;;;;;4.20;2.60;;;;;;;-145.69;77.10;52418.63;5528108;26;20256;-79
2024/04/21 02:02:24;;;;;;;2.97;2.37;;;;;;;-145.69;76.93;52446.38;5528049;26;20221;-79
2024/04/21 02:04:50;;;;;;;3.77;2.70;;;;;;;-145.69;76.86;52373.09;5527744;26;20214;-78
2024/04/21 02:07:18;;;;;;;5.00;2.47;;;;;;;-145.69;76.94;52398.84;5527964;26;20248;-78
2024/04/21 02:09:44;;;;;;;5.03;2.60;;;;;;;-145.69;76.98;52404.78;5528006;26;20218;-79
2024/04/21 02:12:12;;;;;;;3.03;2.40;;;;;;;-145.69;76.53;52396.84;5527580;26;20276;-78
2024/04/21 02:14:40;;;;;;;5.27;3.23;;;;;;;-145.69;76.94;52414.69;5527962;26;20269;-78
2024/04/21 02:17:08;;;;;;;3.97;3.07;;;;;;;-145.69;76.90;52438.44;5527290;26;20229;-78
2024/04/21 02:19:33;;;;;;;7.20;4.73;;;;;;;-145.69;76.51;52428.53;5527968;26;20221;-78
2024/04/21 02:22:01;;;;;;;8.17;4.00;;;;;;;-145.69;76.78;52406.75;5527546;26;20272;-78
2024/04/21 02:24:38;;;;;;;6.87;3.80;;;;;;;-145.69;75.57;52404.78;5527886;26;20217;-77
2024/04/21 02:27:07;;;;;;;7.13;3.67;;;;;;;-145.69;76.24;52444.38;5527889;26;20225;-78
2024/04/21 02:29:32;;;;;;;4.63;3.03;;;;;;;-145.69;76.88;52396.84;5528101;26;20329;-78
2024/04/21 02:32:03;;;;;;;6.97;3.50;;;;;;;-145.69;76.83;52392.91;5527447;26;20217;-78
2024/04/21 02:34:28;;;;;;;6.30;3.47;;;;;;;-145.69;76.85;52410.72;5527797;26;20252;-77
2024/04/21 02:36:56;;;;;;;6.27;3.30;;;;;;;-145.69;76.48;52400.81;5527319;26;20225;-78
2024/04/21 02:39:22;;;;;;;6.97;3.47;;;;;;;-145.69;76.53;52422.59;5527561;26;20448;-78
2024/04/21 02:41:50;;;;;;;3.90;2.83;;;;;;;-145.69;76.68;52412.69;5527345;26;20273;-78
2024/04/21 02:44:15;;;;;;;5.23;3.17;;;;;;;-145.69;76.23;52400.81;5527685;26;20255;-78
2024/04/21 02:46:45;;;;;;;6.60;3.60;;;;;;;-145.69;75.22;52384.97;5526826;26;20561;-78
2024/04/21 02:49:14;;;;;;;5.90;3.23;;;;;;;-145.69;75.39;52408.75;5527661;26;20225;-77
2024/04/21 02:51:42;;;;;;;4.83;3.33;;;;;;;-145.69;75.73;52388.94;5527434;26;20341;-77
2024/04/21 02:54:07;;;;;;;6.97;3.70;;;;;;;-145.69;75.51;52377.06;5490232;26;20616;-78
2024/04/21 02:56:36;;;;;;;4.43;3.33;;;;;;;-145.69;75.90;52424.59;5489646;26;20223;-78
2024/04/21 02:59:01;;;;;;;7.23;3.60;;;;;;;-145.69;76.18;52396.84;5520070;26;20226;-78
2024/04/21 03:01:29;;;;;;;5.83;4.03;;;;;;;-145.69;76.19;52410.72;5527016;26;20268;-77
2024/04/21 03:03:55;;;;;;;5.43;4.03;;;;;;;-145.69;76.05;52402.78;5526736;26;20218;-77
2024/04/21 03:06:25;;;;;;;10.73;3.63;;;;;;;-145.69;75.45;52371.13;5527418;26;20256;-78
2024/04/21 03:08:51;;;;;;;7.27;3.80;;;;;;;-145.69;75.69;52412.69;5527327;26;20263;-77
2024/04/21 03:11:19;;;;;;;9.30;4.03;;;;;;;-145.69;75.77;52406.75;5527041;26;20229;-78
2024/04/21 03:13:45;;;;;;;7.47;5.17;;;;;;;-145.69;75.97;52402.78;5526507;26;20268;-78
2024/04/21 03:16:14;;;;;;;7.50;4.33;;;;;;;-145.69;75.87;52402.78;5526077;26;20592;-78
2024/04/21 03:18:39;;;;;;;10.70;4.10;;;;;;;-145.69;75.47;52400.81;5526539;26;20221;-77
2024/04/21 03:21:07;;;;;;;8.50;3.93;;;;;;;-145.69;75.45;52412.69;5527267;26;20739;-78
2024/04/21 03:23:35;;;;;;;8.87;4.50;;;;;;;-145.69;74.03;52388.94;5526777;26;20222;-77
2024/04/21 03:26:04;;;;;;;8.37;4.33;;;;;;;-145.69;74.73;52402.78;5526779;26;20756;-77
2024/04/21 03:28:29;;;;;;;6.93;4.30;;;;;;;-145.69;73.20;52408.75;5526862;26;20786;-77
2024/04/21 03:30:58;;;;;;;7.40;4.60;;;;;;;-145.69;72.69;52369.13;5527038;26;20226;-78
2024/04/21 03:33:24;;;;;;;8.70;4.60;;;;;;;-145.69;72.83;52410.72;5525737;26;20708;-78
2024/04/21 03:36:07;;;;;;;7.23;4.00;;;;;;;-145.69;72.57;52375.06;5526843;26;20268;-78
2024/04/21 03:38:39;;;;;;;11.87;4.30;;;;;;;-145.69;73.84;52396.84;5527048;26;20222;-78
2024/04/21 03:41:07;;;;;;;11.50;4.30;;;;;;;-145.69;73.99;52379.03;5526495;26;20332;-77
2024/04/21 03:43:35;;;;;;;7.73;3.90;;;;;;;-145.69;73.47;52408.75;5514741;26;20737;-77
2024/04/21 03:46:03;;;;;;;15.00;4.60;;;;;;;-145.69;73.08;52377.06;5526554;26;20225;-77
2024/04/21 03:48:29;;;;;;;12.87;4.20;;;;;;;-145.69;73.82;52412.69;5526792;26;20260;-77
2024/04/21 03:50:57;;;;;;;10.57;3.97;;;;;;;-145.69;73.39;52398.84;5526188;26;20225;-79
2024/04/21 03:53:23;;;;;;;12.27;4.47;;;;;;;-145.69;72.46;52408.75;5526542;26;20214;-79
2024/04/21 03:55:53;;;;;;;8.77;4.43;;;;;;;-145.69;71.57;52402.78;5526519;26;20225;-77
2024/04/21 03:58:19;;;;;;;11.30;4.17;;;;;;;-145.69;72.70;52392.91;5526030;26;20636;-78
2024/04/21 04:00:48;;;;;;;12.10;4.50;;;;;;;-145.69;73.07;52424.59;5525930;26;20265;-77
2024/04/21 04:03:13;;;;;;;9.53;3.97;;;;;;;-145.69;74.09;52394.88;5526761;26;20279;-77
2024/04/21 04:05:44;;;;;;;6.83;3.87;;;;;;;-145.69;74.00;52398.84;5526553;26;20225;-78
2024/04/21 04:08:09;;;;;;;10.07;4.03;;;;;;;-145.69;73.96;52398.84;5525977;26;20221;-79
2024/04/21 04:10:37;;;;;;;8.70;4.10;;;;;;;-145.69;74.41;52392.91;5525222;26;20272;-79
2024/04/21 04:13:06;;;;;;;13.00;4.70;;;;;;;-145.69;73.60;52373.09;5526710;26;20251;-79
2024/04/21 04:15:34;;;;;;;6.77;4.20;;;;;;;-145.69;72.88;52406.75;5524419;26;20355;-78
2024/04/21 04:17:59;;;;;;;6.90;4.00;;;;;;;-145.69;72.26;52390.91;5525774;26;20222;-79
2024/04/21 04:20:27;;;;;;;10.73;3.93;;;;;;;-145.69;73.28;52373.09;5526242;26;20268;-79
2024/04/21 04:22:53;;;;;;;5.97;3.90;;;;;;;-145.69;74.56;52412.69;5526333;26;20252;-79
2024/04/21 04:25:21;;;;;;;8.53;4.17;;;;;;;-145.69;74.12;52414.69;5525762;26;20229;-79
2024/04/21 04:27:47;;;;;;;8.93;5.47;;;;;;;-145.69;73.62;52424.59;5525549;26;20764;-80
2024/04/21 04:30:17;;;;;;;8.90;4.67;;;;;;;-145.69;74.02;52404.78;5526269;26;20225;-79
2024/04/21 04:32:46;;;;;;;13.87;4.80;;;;;;;-145.69;72.71;52377.06;5526240;26;20268;-78
2024/04/21 04:35:12;;;;;;;8.47;4.40;;;;;;;-145.69;73.52;52414.69;5525734;26;20222;-78
2024/04/21 04:37:40;;;;;;;11.50;4.67;;;;;;;-145.69;73.65;52396.84;5526191;26;20268;-78
2024/04/21 04:40:06;;;;;;;9.00;4.70;;;;;;;-145.69;73.39;52369.13;5525878;26;20314;-79
2024/04/21 04:42:34;;;;;;;7.90;4.40;;;;;;;-145.69;73.60;52414.69;5525570;26;20229;-78
2024/04/21 04:45:00;;;;;;;12.73;4.20;;;;;;;-145.69;73.62;52434.47;5525720;26;20221;-78
2024/04/21 04:47:31;;;;;;;7.60;4.43;;;;;;;-145.69;72.81;52394.88;5525245;26;20225;-78
2024/04/21 04:49:56;;;;;;;12.67;4.50;;;;;;;-145.69;71.88;52400.81;5525016;26;20229;-79
2024/04/21 04:52:24;;;;;;;11.70;4.77;;;;;;;-145.69;71.99;52359.22;5525854;26;20264;-78
2024/04/21 04:54:50;;;;;;;10.13;4.83;;;;;;;-145.69;72.25;52396.84;5525758;26;20696;-78
2024/04/21 04:57:18;;;;;;;14.87;5.80;;;;;;;-145.69;71.80;52381.00;5525413;26;20272;-78
2024/04/21 04:59:43;;;;;;;6.93;4.17;;;;;;;-145.69;72.34;52402.78;5525917;26;20272;-79
2024/04/21 05:02:11;;;;;;;12.27;4.43;;;;;;;-145.69;72.26;52408.75;5525688;26;20574;-78
2024/04/21 05:04:40;;;;;;;11.93;4.77;;;;;;;-145.69;71.92;52404.78;5524970;26;20260;-79
2024/04/21 05:07:08;;;;;;;6.40;4.07;;;;;;;-145.69;72.61;52404.78;5525169;26;20329;-79
2024/04/21 05:09:34;;;;;;;11.60;4.87;;;;;;;-145.69;72.77;52390.91;5525463;26;20668;-78
2024/04/21 05:12:02;;;;;;;12.53;5.50;;;;;;;-145.69;73.06;52434.47;5524902;26;20221;-79
2024/04/21 05:14:27;;;;;;;8.03;4.33;;;;;;;-145.69;71.56;52412.69;5525048;26;20556;-79
2024/04/21 05:16:55;;;;;;;11.17;4.50;;;;;;;-145.69;70.53;52375.06;5525243;26;20226;-79
2024/04/21 05:19:21;;;;;;;8.30;4.27;;;;;;;-145.69;71.44;52388.94;5524811;26;20225;-78
2024/04/21 05:21:51;;;;;;;7.27;3.83;;;;;;;-145.69;70.55;52404.78;5524467;26;20642;-78
2024/04/21 05:24:17;;;;;;;7.80;3.67;;;;;;;-145.69;70.16;52396.84;5525286;26;20256;-78
2024/04/21 05:26:45;;;;;;;8.47;3.27;;;;;;;-145.69;70.11;52402.78;5524878;26;20869;-77
2024/04/21 05:29:10;;;;;;;8.70;3.23;;;;;;;-145.69;71.65;52394.88;5528957;26;20352;-78
2024/04/21 05:31:38;;;;;;;7.20;3.43;;;;;;;-145.69;71.59;52384.97;5528268;26;20237;-79
2024/04/21 05:34:04;;;;;;;7.03;4.30;;;;;;;-145.69;71.37;52394.88;5528538;26;20222;-80
2024/04/21 05:36:32;;;;;;;6.20;3.40;;;;;;;-145.69;72.77;52422.59;5528931;26;20707;-81
2024/04/21 05:39:03;;;;;;;3.83;2.93;;;;;;;-145.69;73.15;52406.75;5530256;26;20281;-81
2024/04/21 05:41:28;;;;;;;2.53;2.23;;;;;;;-145.69;73.49;52412.69;5511310;25;20587;-81
2024/04/21 05:43:56;;;;;;;2.00;1.80;;;;;;;-145.69;73.34;52422.59;5531045;26;20221;-82
2024/04/21 05:46:22;;;;;;;3.43;1.80;;;;;;;-145.69;73.75;52388.94;5529013;26;20688;-81
2024/04/21 05:48:50;;;;;;;1.97;1.73;;;;;;;-145.69;73.92;52412.69;5528372;26;20276;-81
2024/04/21 05:51:15;;;;;;;1.73;1.63;;;;;;;-145.69;72.09;52400.81;5531336;26;20615;-82
2024/04/21 05:53:43;;;;;;;2.47;2.27;;;;;;;-145.69;73.55;52426.56;5537333;26;20213;-83
2024/04/21 05:56:12;;;;;;;1.80;1.47;;;;;;;-145.69;72.22;52410.72;5543170;26;20221;-84
2024/04/21 05:58:40;;;;;;;1.87;0.90;;;;;;;-145.69;72.08;52410.72;5540624;26;20226;-84
2024/04/21 06:01:05;;;;;;;0.60;0.60;;;;;;;-145.69;71.94;52438.44;5532233;26;20657;-79
2024/04/21 06:03:33;;;;;;;0.70;0.70;;;;;;;-145.69;71.25;52396.84;5528539;26;20225;-78
2024/04/21 06:05:59;;;;;;;0.60;0.60;;;;;;;-145.69;72.40;52410.72;5528248;26;20256;-79
2024/04/21 06:08:27;;;;;;;0.60;0.60;;;;;;;-145.69;73.05;52430.53;5528540;26;20225;-80
2024/04/21 06:10:52;;;;;;;0.70;0.70;;;;;;;-145.69;73.99;52410.72;5528027;26;20260;-81
2024/04/21 06:13:23;;;;;;;0.73;0.70;;;;;;;-145.69;73.44;52396.84;5527813;26;20248;-80
2024/04/21 06:15:48;;;;;;;1.50;0.50;;;;;;;-145.69;73.41;52428.53;5527492;26;20222;-78
2024/04/21 06:18:16;;;;;;;0.63;0.63;;;;;;;-145.69;74.22;52420.63;5527634;26;20616;-80
2024/04/21 06:20:42;;;;;;;1.63;0.80;;;;;;;-145.69;74.31;52420.63;5528157;26;20252;-79
2024/04/21 06:23:10;;;;;;;0.80;0.80;;;;;;;-145.69;74.73;52396.84;5527684;26;20225;-80
2024/04/21 06:25:35;;;;;;;0.80;0.80;;;;;;;-145.69;74.62;52390.91;5527518;26;20272;-81
2024/04/21 06:28:04;;;;;;;1.30;1.00;;;;;;;-145.69;74.96;52428.53;5528254;26;20233;-80
2024/04/21 06:30:32;;;;;;;0.93;0.93;;;;;;;-145.69;74.98;52426.56;5528212;26;20221;-81
2024/04/21 06:33:00;;;;;;;0.90;0.90;;;;;;;-145.69;75.17;52420.63;5526911;26;20222;-82
2024/04/21 06:35:25;;;;;;;1.10;0.93;;;;;;;-145.69;75.13;52434.47;5527694;26;20222;-82
2024/04/21 06:37:53;;;;;;;5.00;1.17;;;;;;;-145.69;75.37;52424.59;5527680;26;20530;-84
2024/04/21 06:40:19;;;;;;;1.53;1.10;;;;;;;-145.69;75.94;52430.53;5526783;26;20221;-82
2024/04/21 06:42:47;;;;;;;5.03;1.10;;;;;;;-145.69;76.13;52420.63;5527442;26;20280;-81
2024/04/21 06:45:12;;;;;;;1.17;1.07;;;;;;;-145.69;75.98;52422.59;5527637;26;20263;-82
2024/04/21 06:47:43;;;;;;;3.67;1.30;;;;;;;-145.69;75.35;52373.09;5527729;26;20229;-83
2024/04/21 06:50:09;;;;;;;1.10;1.00;;;;;;;-145.69;75.20;52424.59;5527444;26;20588;-84
2024/04/21 06:52:37;;;;;;;1.40;1.20;;;;;;;-145.69;75.60;52416.66;5527529;26;20233;-82
2024/04/21 06:55:02;;;;;;;3.80;1.40;;;;;;;-145.69;75.47;52426.56;5527673;26;20272;-83
2024/04/21 06:57:31;;;;;;;6.30;1.50;;;;;;;-145.69;75.50;52408.75;5526725;26;20285;-83
2024/04/21 06:59:57;;;;;;;3.43;1.50;;;;;;;-145.69;74.68;52434.47;5527616;26;20263;-82
2024/04/21 07:02:25;;;;;;;4.27;1.50;;;;;;;-145.69;74.45;52398.84;5528170;26;20217;-83
2024/04/21 07:04:53;;;;;;;3.83;1.70;;;;;;;-145.69;75.57;52414.69;5528222;26;20272;-82
2024/04/21 07:07:21;;;;;;;8.63;2.03;;;;;;;-145.69;75.52;52418.63;5527227;26;20221;-84
2024/04/21 07:09:46;;;;;;;3.87;1.93;;;;;;;-145.69;74.85;52398.84;5528061;26;20213;-83
2024/04/21 07:12:15;;;;;;;8.97;1.73;;;;;;;-145.69;75.45;52386.97;5526821;26;20237;-82
2024/04/21 07:14:40;;;;;;;6.37;1.90;;;;;;;-145.69;74.12;52416.66;5527124;26;20221;-82
2024/04/21 07:17:08;;;;;;;2.63;1.70;;;;;;;-145.69;74.74;52458.25;5527478;26;20719;-82
2024/04/21 07:19:34;;;;;;;1.93;1.57;;;;;;;-145.69;74.46;52430.53;5527735;26;20233;-84
2024/04/21 07:22:04;;;;;;;3.50;1.60;;;;;;;-145.69;74.78;52404.78;5528056;26;20260;-84
2024/04/21 07:24:30;;;;;;;4.30;2.00;;;;;;;-145.69;74.55;52408.75;5530447;26;20252;-84
2024/04/21 07:26:59;;;;;;;6.80;2.10;;;;;;;-145.69;74.37;52412.69;5531171;26;20237;-83
2024/04/21 07:29:24;;;;;;;5.10;1.90;;;;;;;-145.69;74.14;52398.84;5526921;26;20229;-83
2024/04/21 07:31:53;;;;;;;3.80;1.50;;;;;;;-145.69;73.61;52392.91;5523400;25;20310;-84
2024/04/21 07:34:18;;;;;;;3.93;2.03;;;;;;;-145.69;75.75;52396.84;5527872;25;20261;-84
2024/04/21 07:36:46;;;;;;;4.27;2.20;;;;;;;-145.69;70.92;52428.53;5528535;25;21069;-82
2024/04/21 07:39:14;;;;;;;7.30;1.90;;;;;;;-145.69;73.58;52388.94;5519258;25;20785;-83
2024/04/21 07:41:43;;;;;;;4.13;1.47;;;;;;;-145.69;74.71;52404.78;5512827;26;20229;-82
2024/04/21 07:44:08;;;;;;;6.30;1.90;;;;;;;-145.69;74.73;52414.69;5528583;26;20251;-82
2024/04/21 07:46:36;;;;;;;3.63;1.50;;;;;;;-145.69;73.89;52357.25;5527464;26;20225;-83
2024/04/21 07:49:04;;;;;;;7.57;1.60;;;;;;;-145.69;71.84;52384.97;5530899;26;20230;-83
2024/04/21 07:51:32;;;;;;;2.30;1.57;;;;;;;-145.69;66.92;52371.13;5529835;26;20226;-82
2024/04/21 07:53:58;;;;;;;4.53;1.47;;;;;;;-145.69;69.08;52375.06;5531959;26;20217;-84
2024/04/21 07:56:29;;;;;;;3.97;1.30;;;;;;;-145.69;70.21;52317.66;5537112;26;20271;-83
2024/04/21 07:58:56;;;;;;;2.73;1.30;;;;;;;-145.69;68.88;52315.66;5534219;26;20289;-84
2024/04/21 08:01:26;;;;;;;3.00;1.30;;;;;;;-145.69;66.99;52309.72;5531859;26;20281;-82
2024/04/21 08:03:52;;;;;;;7.93;1.53;;;;;;;-145.69;66.93;52361.22;5533793;26;20226;-84
2024/04/21 08:06:20;;;;;;;2.27;1.17;;;;;;;-145.69;60.48;52337.44;5529015;26;20260;-83
2024/04/21 08:08:45;;;;;;;4.00;1.33;;;;;;;-145.69;59.13;52381.00;5526769;26;20268;-83
2024/04/21 08:11:14;;;;;;;2.53;1.17;;;;;;;-145.69;60.01;52381.00;5526649;26;20689;-83
2024/04/21 08:13:42;;;;;;;6.23;1.47;;;;;;;-145.69;59.35;52301.81;5526836;26;20222;-84
2024/04/21 08:16:10;;;;;;;3.50;1.23;;;;;;;-145.69;54.61;52353.28;5526732;26;20272;-82
2024/04/21 08:18:36;;;;;;;2.07;1.17;;;;;;;-145.69;52.31;52361.22;5526716;26;20338;-82
2024/04/21 08:21:04;;;;;;;4.13;1.43;;;;;;;-145.69;56.67;52303.78;5526382;26;20229;-82
2024/04/21 08:23:30;;;;;;;4.00;1.27;;;;;;;-145.69;53.85;52317.66;5526671;26;20230;-84
2024/04/21 08:26:00;;;;;;;2.50;1.20;;;;;;;-145.69;52.38;52309.72;5526646;26;20804;-81
2024/04/21 08:28:25;;;;;;;1.93;1.20;;;;;;;-145.69;53.63;52333.47;5526436;26;20349;-82
2024/04/21 08:30:56;;;;;;;3.53;1.40;;;;;;;-145.69;52.96;52339.44;5526135;26;20245;-82
2024/04/21 08:33:22;;;;;;;3.07;1.37;;;;;;;-145.69;52.89;52325.56;5525948;26;20221;-81
2024/04/21 08:35:53;;;;;;;4.73;1.40;;;;;;;-145.69;51.58;52309.72;5525701;26;20712;-81
2024/04/21 08:38:19;;;;;;;6.63;1.50;;;;;;;-145.69;54.18;52335.47;5525847;26;20217;-81
2024/04/21 08:40:51;;;;;;;3.03;1.27;;;;;;;-145.69;51.71;52361.22;5524772;26;20604;-81
2024/04/21 08:43:21;;;;;;;2.77;1.07;;;;;;;-145.69;55.76;52325.56;5525695;26;20587;-81
2024/04/21 08:45:51;;;;;;;2.97;1.17;;;;;;;-145.69;53.96;52355.28;5526043;26;20263;-81
2024/04/21 08:48:20;;;;;;;3.97;1.30;;;;;;;-145.69;50.72;52329.53;5524765;26;20755;-81
2024/04/21 08:50:48;;;;;;;6.73;1.30;;;;;;;-145.69;50.79;52373.09;5525384;26;20233;-80
2024/04/21 08:53:14;;;;;;;5.03;1.50;;;;;;;-145.69;51.34;52357.25;5525014;26;20252;-81
2024/04/21 08:55:48;;;;;;;4.07;1.40;;;;;;;-145.69;52.17;52359.22;5525614;26;20225;-81
2024/04/21 08:58:15;;;;;;;4.13;1.50;;;;;;;-145.69;50.79;52339.44;5525492;26;20224;-80
2024/04/21 09:00:43;;;;;;;3.90;1.50;;;;;;;-145.69;52.34;52331.50;5524993;26;20222;-82
2024/04/21 09:03:09;;;;;;;7.80;1.63;;;;;;;-145.69;52.85;52337.44;5525108;26;20221;-80
2024/04/21 09:05:41;;;;;;;7.73;2.03;;;;;;;-145.69;49.42;52331.50;5525331;26;20218;-81
2024/04/21 09:08:06;;;;;;;6.73;1.40;;;;;;;-145.69;50.16;52305.75;5524719;26;20276;-82
2024/04/21 09:10:35;;;;;;;5.63;1.70;;;;;;;-145.69;49.05;52299.81;5525886;26;20700;-80
2024/04/21 09:13:01;;;;;;;4.13;1.40;;;;;;;-145.69;49.99;52297.84;5525080;26;20229;-80
2024/04/21 09:15:30;;;;;;;3.67;1.70;;;;;;;-145.69;48.78;52272.09;5525531;26;20271;-81
2024/04/21 09:17:55;;;;;;;4.10;1.40;;;;;;;-145.69;47.16;52329.53;5525467;26;20561;-81
2024/04/21 09:20:24;;;;;;;2.63;1.20;;;;;;;-145.69;50.57;52297.84;5525395;26;20329;-81
2024/04/21 09:22:52;;;;;;;6.53;1.60;;;;;;;-145.69;54.13;52313.69;5525009;26;20217;-82
2024/04/21 09:25:21;;;;;;;3.20;1.40;;;;;;;-145.69;49.37;52301.81;5524559;26;20354;-82
2024/04/21 09:27:47;;;;;;;6.87;1.60;;;;;;;-145.69;49.83;52317.66;5524150;26;20221;-81
2024/04/21 09:30:15;;;;;;;5.13;1.37;;;;;;;-145.69;47.65;52321.59;5521669;26;20277;-82
2024/04/21 09:32:41;;;;;;;4.07;1.50;;;;;;;-145.69;48.19;52315.66;5524938;26;20696;-82
2024/04/21 09:35:09;;;;;;;11.53;1.57;;;;;;;-145.69;46.35;52319.63;5525089;26;20264;-82
2024/04/21 09:37:34;;;;;;;4.97;1.50;;;;;;;-145.69;49.67;52313.69;5525458;26;20689;-82
2024/04/21 09:40:07;;;;;;;4.43;1.30;;;;;;;-145.69;51.62;52278.03;5525337;26;20222;-82
2024/04/21 09:42:33;;;;;;;6.93;1.80;;;;;;;-145.69;51.58;52270.13;5524594;26;20322;-80
2024/04/21 09:45:03;;;;;;;2.80;1.50;;;;;;;-145.69;51.27;52282.00;5524329;26;20233;-81
2024/04/21 09:47:31;;;;;;;6.13;1.73;;;;;;;-145.69;50.09;52268.13;5523690;26;20221;-79
2024/04/21 09:50:01;;;;;;;7.50;1.40;;;;;;;-145.69;51.59;52254.28;5524732;26;20301;-79
2024/04/21 09:52:28;;;;;;;7.53;1.95;;;;;;;-145.69;48.40;52256.25;5524690;26;20237;-79
2024/04/21 09:54:56;;;;;;;4.45;1.60;;;;;;;-145.69;49.20;52270.13;5524548;26;20747;-79
2024/04/21 09:57:25;;;;;;;2.35;1.40;;;;;;;-145.69;55.11;52268.13;5524373;26;20277;-78
2024/04/21 10:00:01;;;;;;;3.70;1.17;;;;;;;-145.69;51.04;52268.13;5524203;26;20236;-77
2024/04/21 10:02:35;;;;;;;3.90;1.10;;;;;;;-145.69;49.99;52236.44;5516947;26;20296;-77
2024/04/21 10:05:07;;;;;;;4.72;1.20;;;;;;;-145.69;51.02;52246.34;5524538;26;20259;-77
2024/04/21 10:07:36;;;;;;;2.05;1.20;;;;;;;-145.69;43.64;52234.47;5524273;26;20226;-77
2024/04/21 10:10:10;;;;;;;4.88;1.73;;;;;;;-145.69;40.42;52218.63;5524410;26;20325;-77
2024/04/21 10:12:39;;;;;;;8.30;1.60;;;;;;;-145.69;40.66;52216.66;5523984;26;20229;-78
2024/04/21 10:15:09;;;;;;;4.85;1.40;;;;;;;-145.69;45.27;52262.19;5526879;26;20285;-79
2024/04/21 10:17:35;;;;;;;4.55;1.50;;;;;;;-145.69;44.17;52228.53;5527875;26;20213;-78
2024/04/21 10:20:05;;;;;;;5.47;1.65;;;;;;;-145.69;46.75;52278.03;5527562;26;20759;-77
2024/04/21 10:22:30;;;;;;;4.00;1.35;;;;;;;-145.69;50.49;52266.16;5528029;26;20217;-77
2024/04/21 10:24:58;;;;;;;5.20;1.80;;;;;;;-145.69;48.24;52250.31;5527933;26;20268;-76
2024/04/21 10:27:24;;;;;;;3.63;1.48;;;;;;;-145.69;48.37;52266.16;5527680;26;20267;-76
2024/04/21 10:29:55;;;;;;;6.97;1.38;;;;;;;-145.69;49.08;52282.00;5527870;26;20225;-77
2024/04/21 10:32:24;;;;;;;8.90;1.77;;;;;;;-145.69;52.43;52270.13;5527574;26;20229;-77
2024/04/21 10:34:52;;;;;;;4.33;1.40;;;;;;;-145.69;48.94;52313.69;5527374;26;20229;-77
2024/04/21 10:37:20;;;;;;;5.37;1.93;;;;;;;-145.69;52.54;52270.13;5526922;26;20252;-76
2024/04/21 10:39:49;;;;;;;2.20;1.60;;;;;;;-145.69;50.93;52278.03;5527790;26;20748;-76
2024/04/21 10:42:15;;;;;;;6.97;1.63;;;;;;;-145.69;50.41;52283.97;5527497;26;20762;-76
2024/04/21 10:44:44;;;;;;;7.50;1.83;;;;;;;-145.69;51.18;52301.81;5526804;26;20230;-78
2024/04/21 10:47:12;;;;;;;4.43;1.80;;;;;;;-145.69;54.28;52295.84;5527698;26;20333;-77
2024/04/21 10:49:40;;;;;;;4.80;1.90;;;;;;;-145.69;47.61;52289.91;5527220;25;20227;-78
2024/04/21 10:52:06;;;;;;;5.50;1.83;;;;;;;-145.69;50.11;52278.03;5527649;25;20222;-76
2024/04/21 10:54:35;;;;;;;8.63;1.77;;;;;;;-145.69;44.38;52293.88;5527068;26;20600;-78
2024/04/21 10:57:02;;;;;;;5.57;1.83;;;;;;;-145.69;45.77;52270.13;5527487;25;20263;-78
2024/04/21 10:59:32;;;;;;;3.63;1.42;;;;;;;-145.69;40.52;52262.19;5526749;25;20284;-78
2024/04/21 11:01:58;;;;;;;4.97;1.27;;;;;;;-145.69;41.57;52226.53;5526992;26;20271;-78
2024/04/21 11:04:34;;;;;;;5.47;1.50;;;;;;;-145.69;41.36;52238.44;5526665;26;20221;-79
2024/04/21 11:07:02;;;;;;;4.70;1.80;;;;;;;-145.69;40.16;52236.44;5527643;26;20232;-79
2024/04/21 11:09:31;;;;;;;4.30;1.38;;;;;;;-145.69;41.85;52230.50;5527115;26;20221;-79
2024/04/21 11:11:58;;;;;;;4.57;1.23;;;;;;;-145.69;39.34;52222.59;5525819;26;20229;-79
2024/04/21 11:14:27;;;;;;;5.00;1.25;;;;;;;-145.69;38.59;52214.66;5525278;26;20256;-80
2024/04/21 11:16:52;;;;;;;6.25;1.40;;;;;;;-145.69;38.75;52238.44;5527058;26;20329;-78
2024/04/21 11:19:21;;;;;;;9.38;1.40;;;;;;;-145.69;39.50;52190.91;5526964;26;20226;-79